sensor_id;sensor_type;location;lat;lon;timestamp;P1;durP1;ratioP1;P2;durP2;ratioP2
84011;SDS011;74081;52.490;13.428;2023-12-29T15:30:44;4.70;;;2.30;;
84011;SDS011;74081;52.490;13.428;2023-12-29T15:33:17;3.57;;;2.17;;
84011;SDS011;74081;52.490;13.428;2023-12-29T15:35:45;7.47;;;3.13;;
84011;SDS011;74081;52.490;13.428;2023-12-29T15:38:12;4.23;;;2.70;;
84011;SDS011;74081;52.490;13.428;2023-12-29T15:40:40;3.57;;;2.67;;
84011;SDS011;74081;52.490;13.428;2023-12-29T15:43:07;2.40;;;2.23;;
84011;SDS011;74081;52.490;13.428;2023-12-29T15:45:34;3.43;;;1.70;;
84011;SDS011;74081;52.490;13.428;2023-12-29T15:48:02;5.73;;;3.30;;
84011;SDS011;74081;52.490;13.428;2023-12-29T15:50:30;4.57;;;3.90;;
84011;SDS011;74081;52.490;13.428;2023-12-29T15:52:57;2.70;;;2.50;;
84011;SDS011;74081;52.490;13.428;2023-12-29T15:55:24;4.00;;;2.70;;
84011;SDS011;74081;52.490;13.428;2023-12-29T15:57:51;5.30;;;3.20;;
84011;SDS011;74081;52.490;13.428;2023-12-29T16:00:18;4.03;;;3.00;;
84011;SDS011;74081;52.490;13.428;2023-12-29T16:02:45;3.60;;;2.30;;
84011;SDS011;74081;52.490;13.428;2023-12-29T16:05:12;3.93;;;3.10;;
84011;SDS011;74081;52.490;13.428;2023-12-29T16:07:40;4.00;;;2.93;;
84011;SDS011;74081;52.490;13.428;2023-12-29T16:10:07;2.47;;;2.13;;
84011;SDS011;74081;52.490;13.428;2023-12-29T16:12:35;2.40;;;1.70;;
84011;SDS011;74081;52.490;13.428;2023-12-29T16:15:02;2.73;;;2.20;;
84011;SDS011;74081;52.490;13.428;2023-12-29T16:17:32;4.00;;;3.00;;
84011;SDS011;74081;52.490;13.428;2023-12-29T16:19:59;3.43;;;3.00;;
84011;SDS011;74081;52.490;13.428;2023-12-29T16:22:26;7.67;;;4.80;;
84011;SDS011;74081;52.490;13.428;2023-12-29T16:24:53;7.10;;;3.30;;
84011;SDS011;74081;52.490;13.428;2023-12-29T16:27:20;4.10;;;2.80;;
84011;SDS011;74081;52.490;13.428;2023-12-29T16:29:47;2.83;;;2.53;;
84011;SDS011;74081;52.490;13.428;2023-12-29T16:32:21;4.27;;;3.50;;
84011;SDS011;74081;52.490;13.428;2023-12-29T16:34:49;8.73;;;5.20;;
84011;SDS011;74081;52.490;13.428;2023-12-29T16:37:16;6.00;;;4.30;;
84011;SDS011;74081;52.490;13.428;2023-12-29T16:39:43;9.23;;;3.67;;
84011;SDS011;74081;52.490;13.428;2023-12-29T16:42:10;2.73;;;2.20;;
84011;SDS011;74081;52.490;13.428;2023-12-29T16:44:42;7.67;;;4.20;;
84011;SDS011;74081;52.490;13.428;2023-12-29T16:47:09;4.30;;;3.73;;
84011;SDS011;74081;52.490;13.428;2023-12-29T16:49:36;11.00;;;7.10;;
84011;SDS011;74081;52.490;13.428;2023-12-29T16:52:04;8.67;;;4.10;;
84011;SDS011;74081;52.490;13.428;2023-12-29T16:54:31;9.33;;;6.57;;
84011;SDS011;74081;52.490;13.428;2023-12-29T16:57:01;5.63;;;4.50;;
84011;SDS011;74081;52.490;13.428;2023-12-29T16:59:29;3.17;;;2.97;;
84011;SDS011;74081;52.490;13.428;2023-12-29T17:01:56;3.17;;;2.53;;
84011;SDS011;74081;52.490;13.428;2023-12-29T17:04:23;8.80;;;4.90;;
84011;SDS011;74081;52.490;13.428;2023-12-29T17:06:52;10.33;;;5.50;;
84011;SDS011;74081;52.490;13.428;2023-12-29T17:09:21;8.33;;;4.97;;
84011;SDS011;74081;52.490;13.428;2023-12-29T17:11:47;14.00;;;8.73;;
84011;SDS011;74081;52.490;13.428;2023-12-29T17:14:15;8.77;;;6.37;;
84011;SDS011;74081;52.490;13.428;2023-12-29T17:16:42;4.40;;;3.43;;
84011;SDS011;74081;52.490;13.428;2023-12-29T17:19:09;5.77;;;4.10;;
84011;SDS011;74081;52.490;13.428;2023-12-29T17:21:37;3.90;;;3.33;;
84011;SDS011;74081;52.490;13.428;2023-12-29T17:24:04;9.07;;;4.07;;
84011;SDS011;74081;52.490;13.428;2023-12-29T17:26:31;3.50;;;2.70;;
84011;SDS011;74081;52.490;13.428;2023-12-29T17:28:58;6.33;;;3.57;;
84011;SDS011;74081;52.490;13.428;2023-12-29T17:31:25;6.50;;;3.70;;
84011;SDS011;74081;52.490;13.428;2023-12-29T17:33:52;9.83;;;6.30;;
84011;SDS011;74081;52.490;13.428;2023-12-29T17:36:20;7.70;;;5.00;;
84011;SDS011;74081;52.490;13.428;2023-12-29T17:38:47;7.47;;;5.47;;
84011;SDS011;74081;52.490;13.428;2023-12-29T17:41:14;5.20;;;2.90;;
84011;SDS011;74081;52.490;13.428;2023-12-29T17:43:44;2.90;;;2.70;;
84011;SDS011;74081;52.490;13.428;2023-12-29T17:46:12;3.50;;;2.43;;
84011;SDS011;74081;52.490;13.428;2023-12-29T17:48:39;3.83;;;2.83;;
84011;SDS011;74081;52.490;13.428;2023-12-29T17:51:07;3.10;;;2.60;;
84011;SDS011;74081;52.490;13.428;2023-12-29T17:53:35;2.10;;;1.97;;
84011;SDS011;74081;52.490;13.428;2023-12-29T17:56:08;5.70;;;2.93;;
84011;SDS011;74081;52.490;13.428;2023-12-29T17:58:35;6.20;;;4.53;;
84011;SDS011;74081;52.490;13.428;2023-12-29T18:01:03;7.20;;;5.03;;
84011;SDS011;74081;52.490;13.428;2023-12-29T18:03:30;3.50;;;2.80;;
84011;SDS011;74081;52.490;13.428;2023-12-29T18:05:57;3.73;;;3.27;;
84011;SDS011;74081;52.490;13.428;2023-12-29T18:08:25;4.83;;;2.70;;
84011;SDS011;74081;52.490;13.428;2023-12-29T18:10:52;2.27;;;2.10;;
84011;SDS011;74081;52.490;13.428;2023-12-29T18:13:20;9.13;;;4.30;;
84011;SDS011;74081;52.490;13.428;2023-12-29T18:15:49;7.80;;;5.40;;
84011;SDS011;74081;52.490;13.428;2023-12-29T18:18:16;2.53;;;2.33;;
84011;SDS011;74081;52.490;13.428;2023-12-29T18:20:44;1.77;;;1.67;;
84011;SDS011;74081;52.490;13.428;2023-12-29T18:23:15;5.00;;;4.07;;
84011;SDS011;74081;52.490;13.428;2023-12-29T18:25:42;2.53;;;2.17;;
84011;SDS011;74081;52.490;13.428;2023-12-29T18:28:09;3.77;;;2.57;;
84011;SDS011;74081;52.490;13.428;2023-12-29T18:30:36;9.50;;;6.40;;
84011;SDS011;74081;52.490;13.428;2023-12-29T18:33:03;5.43;;;3.50;;
84011;SDS011;74081;52.490;13.428;2023-12-29T18:35:34;5.47;;;3.03;;
84011;SDS011;74081;52.490;13.428;2023-12-29T18:38:01;5.20;;;3.67;;
84011;SDS011;74081;52.490;13.428;2023-12-29T18:40:28;6.13;;;3.93;;
84011;SDS011;74081;52.490;13.428;2023-12-29T18:42:58;3.93;;;3.30;;
84011;SDS011;74081;52.490;13.428;2023-12-29T18:45:26;5.87;;;3.47;;
84011;SDS011;74081;52.490;13.428;2023-12-29T18:47:53;7.73;;;5.57;;
84011;SDS011;74081;52.490;13.428;2023-12-29T18:50:21;9.13;;;8.63;;
84011;SDS011;74081;52.490;13.428;2023-12-29T18:52:48;3.57;;;3.40;;
84011;SDS011;74081;52.490;13.428;2023-12-29T18:55:16;4.30;;;2.30;;
84011;SDS011;74081;52.490;13.428;2023-12-29T18:57:43;2.77;;;2.53;;
84011;SDS011;74081;52.490;13.428;2023-12-29T19:00:10;4.40;;;2.70;;
84011;SDS011;74081;52.490;13.428;2023-12-29T19:02:37;3.87;;;2.27;;
84011;SDS011;74081;52.490;13.428;2023-12-29T19:05:04;2.43;;;2.20;;
84011;SDS011;74081;52.490;13.428;2023-12-29T19:07:32;2.93;;;2.10;;
84011;SDS011;74081;52.490;13.428;2023-12-29T19:09:59;2.30;;;2.10;;
84011;SDS011;74081;52.490;13.428;2023-12-29T19:12:26;4.83;;;2.67;;
84011;SDS011;74081;52.490;13.428;2023-12-29T19:14:52;4.23;;;3.97;;
84011;SDS011;74081;52.490;13.428;2023-12-29T19:17:21;3.43;;;2.33;;
84011;SDS011;74081;52.490;13.428;2023-12-29T19:19:49;4.50;;;3.43;;
84011;SDS011;74081;52.490;13.428;2023-12-29T19:22:16;2.80;;;2.43;;
84011;SDS011;74081;52.490;13.428;2023-12-29T19:24:43;2.50;;;1.90;;
84011;SDS011;74081;52.490;13.428;2023-12-29T19:27:10;2.33;;;2.00;;
84011;SDS011;74081;52.490;13.428;2023-12-29T19:29:39;2.20;;;1.93;;
84011;SDS011;74081;52.490;13.428;2023-12-29T19:32:08;3.70;;;1.70;;
84011;SDS011;74081;52.490;13.428;2023-12-29T19:34:35;3.40;;;2.20;;
84011;SDS011;74081;52.490;13.428;2023-12-29T19:37:02;4.60;;;3.10;;
84011;SDS011;74081;52.490;13.428;2023-12-29T19:39:29;4.03;;;2.97;;
84011;SDS011;74081;52.490;13.428;2023-12-29T19:41:56;2.50;;;2.23;;
84011;SDS011;74081;52.490;13.428;2023-12-29T19:44:23;5.47;;;3.30;;
84011;SDS011;74081;52.490;13.428;2023-12-29T19:46:50;4.67;;;4.03;;
84011;SDS011;74081;52.490;13.428;2023-12-29T19:49:17;5.80;;;4.47;;
84011;SDS011;74081;52.490;13.428;2023-12-29T19:51:44;4.30;;;3.10;;
84011;SDS011;74081;52.490;13.428;2023-12-29T19:54:12;5.63;;;4.03;;
84011;SDS011;74081;52.490;13.428;2023-12-29T19:56:39;6.40;;;4.60;;
84011;SDS011;74081;52.490;13.428;2023-12-29T19:59:06;19.37;;;10.90;;
84011;SDS011;74081;52.490;13.428;2023-12-29T20:01:33;7.00;;;4.40;;
84011;SDS011;74081;52.490;13.428;2023-12-29T20:04:14;2.40;;;2.00;;
84011;SDS011;74081;52.490;13.428;2023-12-29T20:06:41;2.27;;;2.07;;
84011;SDS011;74081;52.490;13.428;2023-12-29T20:09:08;6.53;;;4.03;;
84011;SDS011;74081;52.490;13.428;2023-12-29T20:11:38;2.17;;;1.93;;
84011;SDS011;74081;52.490;13.428;2023-12-29T20:14:11;2.80;;;2.17;;
84011;SDS011;74081;52.490;13.428;2023-12-29T20:16:41;3.40;;;2.30;;
84011;SDS011;74081;52.490;13.428;2023-12-29T20:19:07;5.17;;;3.10;;
84011;SDS011;74081;52.490;13.428;2023-12-29T20:21:37;4.23;;;3.30;;
84011;SDS011;74081;52.490;13.428;2023-12-29T20:24:04;7.40;;;3.50;;
84011;SDS011;74081;52.490;13.428;2023-12-29T20:26:35;4.17;;;2.20;;
84011;SDS011;74081;52.490;13.428;2023-12-29T20:29:02;3.63;;;2.80;;
84011;SDS011;74081;52.490;13.428;2023-12-29T20:31:30;5.67;;;2.93;;
84011;SDS011;74081;52.490;13.428;2023-12-29T20:33:57;3.53;;;2.73;;
84011;SDS011;74081;52.490;13.428;2023-12-29T20:36:26;2.83;;;2.17;;
84011;SDS011;74081;52.490;13.428;2023-12-29T20:38:53;3.03;;;2.03;;
84011;SDS011;74081;52.490;13.428;2023-12-29T20:41:25;3.60;;;2.57;;
84011;SDS011;74081;52.490;13.428;2023-12-29T20:43:53;6.30;;;4.80;;
84011;SDS011;74081;52.490;13.428;2023-12-29T20:46:22;5.23;;;4.57;;
84011;SDS011;74081;52.490;13.428;2023-12-29T20:48:50;3.37;;;3.20;;
84011;SDS011;74081;52.490;13.428;2023-12-29T20:51:18;4.00;;;3.37;;
84011;SDS011;74081;52.490;13.428;2023-12-29T20:53:45;2.90;;;2.60;;
84011;SDS011;74081;52.490;13.428;2023-12-29T20:56:13;3.70;;;2.70;;
84011;SDS011;74081;52.490;13.428;2023-12-29T20:58:40;6.97;;;4.27;;
84011;SDS011;74081;52.490;13.428;2023-12-29T21:01:07;5.93;;;4.73;;
84011;SDS011;74081;52.490;13.428;2023-12-29T21:03:35;7.13;;;5.07;;
84011;SDS011;74081;52.490;13.428;2023-12-29T21:06:03;8.17;;;5.23;;
84011;SDS011;74081;52.490;13.428;2023-12-29T21:08:32;12.80;;;9.90;;
84011;SDS011;74081;52.490;13.428;2023-12-29T21:11:00;10.90;;;7.20;;
84011;SDS011;74081;52.490;13.428;2023-12-29T21:13:27;6.20;;;5.10;;
84011;SDS011;74081;52.490;13.428;2023-12-29T21:15:56;4.43;;;3.90;;
84011;SDS011;74081;52.490;13.428;2023-12-29T21:18:24;6.13;;;4.87;;
84011;SDS011;74081;52.490;13.428;2023-12-29T21:20:51;5.67;;;3.97;;
84011;SDS011;74081;52.490;13.428;2023-12-29T21:23:18;10.77;;;6.77;;
84011;SDS011;74081;52.490;13.428;2023-12-29T21:25:47;10.23;;;6.60;;
84011;SDS011;74081;52.490;13.428;2023-12-29T21:28:14;15.00;;;11.40;;
84011;SDS011;74081;52.490;13.428;2023-12-29T21:30:40;14.40;;;11.27;;
84011;SDS011;74081;52.490;13.428;2023-12-29T21:33:08;15.57;;;10.30;;
84011;SDS011;74081;52.490;13.428;2023-12-29T21:35:35;10.10;;;8.70;;
84011;SDS011;74081;52.490;13.428;2023-12-29T21:38:02;12.37;;;8.80;;
84011;SDS011;74081;52.490;13.428;2023-12-29T21:40:29;16.43;;;11.00;;
84011;SDS011;74081;52.490;13.428;2023-12-29T21:42:56;20.47;;;12.33;;
84011;SDS011;74081;52.490;13.428;2023-12-29T21:45:24;29.83;;;15.90;;
84011;SDS011;74081;52.490;13.428;2023-12-29T21:47:52;28.23;;;16.77;;
84011;SDS011;74081;52.490;13.428;2023-12-29T21:50:20;13.60;;;9.30;;
84011;SDS011;74081;52.490;13.428;2023-12-29T21:52:47;7.23;;;4.93;;
84011;SDS011;74081;52.490;13.428;2023-12-29T21:55:14;7.70;;;4.57;;
84011;SDS011;74081;52.490;13.428;2023-12-29T21:57:41;5.67;;;5.20;;
84011;SDS011;74081;52.490;13.428;2023-12-29T22:00:08;6.27;;;4.90;;
84011;SDS011;74081;52.490;13.428;2023-12-29T22:02:39;6.73;;;6.33;;
84011;SDS011;74081;52.490;13.428;2023-12-29T22:05:09;29.17;;;15.40;;
84011;SDS011;74081;52.490;13.428;2023-12-29T22:07:36;33.67;;;18.37;;
84011;SDS011;74081;52.490;13.428;2023-12-29T22:10:04;14.70;;;11.60;;
84011;SDS011;74081;52.490;13.428;2023-12-29T22:12:31;9.33;;;6.97;;
84011;SDS011;74081;52.490;13.428;2023-12-29T22:14:59;5.50;;;3.80;;
84011;SDS011;74081;52.490;13.428;2023-12-29T22:17:27;2.87;;;2.67;;
84011;SDS011;74081;52.490;13.428;2023-12-29T22:19:54;6.23;;;4.03;;
84011;SDS011;74081;52.490;13.428;2023-12-29T22:22:21;3.20;;;2.40;;
84011;SDS011;74081;52.490;13.428;2023-12-29T22:24:48;2.90;;;2.70;;
84011;SDS011;74081;52.490;13.428;2023-12-29T22:27:16;2.60;;;2.40;;
84011;SDS011;74081;52.490;13.428;2023-12-29T22:29:43;2.40;;;2.23;;
84011;SDS011;74081;52.490;13.428;2023-12-29T22:32:10;2.30;;;2.10;;
84011;SDS011;74081;52.490;13.428;2023-12-29T22:34:37;2.80;;;2.43;;
84011;SDS011;74081;52.490;13.428;2023-12-29T22:37:06;3.20;;;2.80;;
84011;SDS011;74081;52.490;13.428;2023-12-29T22:39:34;3.57;;;3.00;;
84011;SDS011;74081;52.490;13.428;2023-12-29T22:42:00;3.70;;;3.10;;
84011;SDS011;74081;52.490;13.428;2023-12-29T22:44:27;3.73;;;2.63;;
84011;SDS011;74081;52.490;13.428;2023-12-29T22:46:55;2.70;;;2.20;;
84011;SDS011;74081;52.490;13.428;2023-12-29T22:49:21;5.83;;;4.07;;
84011;SDS011;74081;52.490;13.428;2023-12-29T22:51:49;8.90;;;7.40;;
84011;SDS011;74081;52.490;13.428;2023-12-29T22:54:16;5.00;;;3.60;;
84011;SDS011;74081;52.490;13.428;2023-12-29T22:56:43;4.50;;;2.53;;
84011;SDS011;74081;52.490;13.428;2023-12-29T22:59:11;4.80;;;3.17;;
84011;SDS011;74081;52.490;13.428;2023-12-29T23:01:38;4.70;;;3.93;;
84011;SDS011;74081;52.490;13.428;2023-12-29T23:04:06;2.40;;;1.90;;
84011;SDS011;74081;52.490;13.428;2023-12-29T23:06:33;2.23;;;2.10;;
84011;SDS011;74081;52.490;13.428;2023-12-29T23:09:00;2.50;;;2.30;;
84011;SDS011;74081;52.490;13.428;2023-12-29T23:11:27;1.47;;;1.43;;
84011;SDS011;74081;52.490;13.428;2023-12-29T23:13:54;1.63;;;1.47;;
84011;SDS011;74081;52.490;13.428;2023-12-29T23:16:21;1.67;;;1.60;;
84011;SDS011;74081;52.490;13.428;2023-12-29T23:18:48;1.97;;;1.80;;
84011;SDS011;74081;52.490;13.428;2023-12-29T23:21:16;2.07;;;1.40;;
84011;SDS011;74081;52.490;13.428;2023-12-29T23:23:47;2.07;;;1.93;;
84011;SDS011;74081;52.490;13.428;2023-12-29T23:26:14;2.13;;;1.70;;
84011;SDS011;74081;52.490;13.428;2023-12-29T23:28:41;4.13;;;1.80;;
84011;SDS011;74081;52.490;13.428;2023-12-29T23:31:08;2.30;;;1.77;;
84011;SDS011;74081;52.490;13.428;2023-12-29T23:33:36;1.30;;;1.07;;
84011;SDS011;74081;52.490;13.428;2023-12-29T23:36:03;1.90;;;1.17;;
84011;SDS011;74081;52.490;13.428;2023-12-29T23:38:30;2.20;;;1.10;;
84011;SDS011;74081;52.490;13.428;2023-12-29T23:40:57;1.40;;;1.30;;
84011;SDS011;74081;52.490;13.428;2023-12-29T23:43:25;4.50;;;1.43;;
84011;SDS011;74081;52.490;13.428;2023-12-29T23:45:53;1.67;;;0.90;;
84011;SDS011;74081;52.490;13.428;2023-12-29T23:48:21;0.63;;;0.60;;
84011;SDS011;74081;52.490;13.428;2023-12-29T23:50:48;1.20;;;0.70;;
84011;SDS011;74081;52.490;13.428;2023-12-29T23:53:15;0.87;;;0.83;;
84011;SDS011;74081;52.490;13.428;2023-12-29T23:55:41;3.77;;;2.57;;
84011;SDS011;74081;52.490;13.428;2023-12-29T23:58:08;2.80;;;0.90;;
